Time;durP1;ratioP1;P1;durP2;ratioP2;P2;SDS_P1;SDS_P2;PMS_P1;PMS_P2;Temp;Humidity;BMP_temperature;BMP_pressure;BME280_temperature;BME280_humidity;BME280_pressure;Samples;Min_cycle;Max_cycle;Signal;HPM_P1;HPM_P2
2023/07/02 18:53:48;;;;;;;4.13;2.60;;;21.60;99.90;;;;;;2601592;54;20035;31
2023/07/02 18:56:24;;;;;;;3.20;2.42;;;21.60;99.90;;;;;;2602534;54;22157;31
2023/07/02 18:59:00;;;;;;;6.30;2.40;;;21.50;99.90;;;;;;2602289;54;20958;31
2023/07/02 19:01:37;;;;;;;5.32;2.78;;;21.50;99.90;;;;;;2602203;54;20046;31
2023/07/02 19:04:12;;;;;;;;;;;21.40;99.90;;;;;;2601678;54;20048;31
2023/07/02 19:06:49;;;;;;;4.07;2.67;;;21.40;99.90;;;;;;2602788;54;19935;31
2023/07/02 19:09:29;;;;;;;6.43;2.97;;;21.30;99.90;;;;;;2604097;54;20086;31
2023/07/02 19:12:07;;;;;;;4.47;2.67;;;21.20;99.90;;;;;;2603778;54;20026;31
2023/07/02 19:14:46;;;;;;;5.78;3.03;;;21.20;99.90;;;;;;2603116;54;20034;31
2023/07/02 19:17:24;;;;;;;5.70;2.53;;;21.10;99.90;;;;;;2621665;46;20031;31
2023/07/02 19:19:59;;;;;;;5.40;2.67;;;21.10;99.90;;;;;;2614246;46;20796;31
2023/07/02 19:22:36;;;;;;;4.05;3.05;;;21.00;99.90;;;;;;2603127;54;20139;31
2023/07/02 19:25:17;;;;;;;4.40;2.30;;;21.00;99.90;;;;;;2603677;54;20870;31
2023/07/02 19:27:51;;;;;;;5.97;2.80;;;20.90;99.90;;;;;;2603691;54;20888;31
2023/07/02 19:30:31;;;;;;;5.68;2.95;;;20.80;99.90;;;;;;2603789;54;20876;31
2023/07/02 19:33:09;;;;;;;7.93;2.90;;;20.70;99.90;;;;;;2603821;54;20893;31
2023/07/02 19:35:45;;;;;;;5.97;2.85;;;20.70;99.90;;;;;;2602963;54;20034;31
2023/07/02 19:38:25;;;;;;;8.55;2.90;;;20.60;99.90;;;;;;2622011;46;20032;31
2023/07/02 19:41:06;;;;;;;6.45;3.00;;;20.50;99.90;;;;;;2603873;54;20034;31
2023/07/02 19:46:22;;;;;;;3.97;2.70;;;20.30;99.90;;;;;;2603137;54;20042;31
2023/07/02 19:48:59;;;;;;;11.55;3.78;;;20.30;99.90;;;;;;2603102;54;20053;31
2023/07/02 19:51:39;;;;;;;3.50;2.63;;;20.20;99.90;;;;;;2603734;54;20023;31
2023/07/02 19:54:16;;;;;;;5.93;3.15;;;20.20;99.90;;;;;;2602964;54;22353;31
2023/07/02 19:56:54;;;;;;;6.40;2.33;;;20.10;99.90;;;;;;2622530;46;20844;31
2023/07/02 19:59:32;;;;;;;6.50;3.30;;;20.10;99.90;;;;;;2603538;54;20049;31
2023/07/02 20:02:13;;;;;;;4.15;3.20;;;20.10;99.90;;;;;;2603489;54;20926;31
2023/07/02 20:05:00;;;;;;;5.93;2.92;;;20.00;99.90;;;;;;2603577;54;20042;31
2023/07/02 20:07:37;;;;;;;5.45;3.05;;;19.90;99.90;;;;;;2603277;54;20809;31
2023/07/02 20:10:20;;;;;;;6.70;3.30;;;19.80;99.90;;;;;;2603523;54;20925;31
2023/07/02 20:13:00;;;;;;;6.65;2.88;;;19.70;99.90;;;;;;2603601;54;20061;31
2023/07/02 20:15:37;;;;;;;7.53;2.80;;;19.70;99.90;;;;;;2603449;54;20957;31
2023/07/02 20:18:18;;;;;;;5.10;3.15;;;19.60;99.90;;;;;;2603478;54;20251;31
2023/07/02 20:20:54;;;;;;;3.08;2.63;;;19.50;99.90;;;;;;2603669;54;20040;31
2023/07/02 20:23:32;;;;;;;4.28;3.17;;;19.50;99.90;;;;;;2621999;46;20085;31
2023/07/02 20:26:07;;;;;;;5.25;2.75;;;19.40;99.90;;;;;;2603270;54;20929;31
2023/07/02 20:28:50;;;;;;;6.30;3.00;;;19.40;99.90;;;;;;2622392;46;20029;31
2023/07/02 20:31:26;;;;;;;6.97;3.53;;;19.30;99.90;;;;;;2603370;54;20352;31
2023/07/02 20:34:02;;;;;;;3.60;3.05;;;19.30;99.90;;;;;;2603465;54;20879;31
2023/07/02 20:36:40;;;;;;;5.68;3.45;;;19.20;99.90;;;;;;2603716;54;20267;31
2023/07/02 20:39:19;;;;;;;5.68;3.60;;;19.10;99.90;;;;;;2603460;54;20027;31
2023/07/02 20:41:54;;;;;;;5.40;3.30;;;19.10;99.90;;;;;;2603285;54;20023;31
2023/07/02 20:44:37;;;;;;;5.30;3.35;;;19.00;99.90;;;;;;2603563;54;20038;31
2023/07/02 20:47:15;;;;;;;5.40;3.58;;;19.00;99.90;;;;;;2603519;54;20049;31
2023/07/02 20:49:52;;;;;;;7.20;3.35;;;18.90;99.90;;;;;;2603417;54;20050;31
2023/07/02 20:52:28;;;;;;;5.45;3.50;;;18.80;99.90;;;;;;2603528;54;20029;31
2023/07/02 20:55:04;;;;;;;4.60;3.00;;;18.70;99.90;;;;;;2603605;54;20037;31
2023/07/02 20:57:40;;;;;;;8.77;4.07;;;18.70;99.90;;;;;;2621793;46;20136;31
2023/07/02 21:00:19;;;;;;;6.05;3.80;;;18.60;99.90;;;;;;2603583;54;20861;31
2023/07/02 21:02:55;;;;;;;5.18;3.97;;;18.60;99.90;;;;;;2621887;46;20033;31
2023/07/02 21:05:32;;;;;;;6.25;3.40;;;18.60;99.90;;;;;;2603676;54;20027;31
2023/07/02 21:08:11;;;;;;;7.30;4.05;;;18.60;99.90;;;;;;2621865;46;20027;31
2023/07/02 21:10:46;;;;;;;6.85;4.13;;;18.50;99.90;;;;;;2603304;54;20056;31
2023/07/02 21:13:22;;;;;;;5.30;3.30;;;18.50;99.90;;;;;;2603385;54;20046;31
2023/07/02 21:16:03;;;;;;;5.30;3.63;;;18.50;99.90;;;;;;2621923;46;20085;31
2023/07/02 21:18:39;;;;;;;4.90;3.60;;;18.40;99.90;;;;;;2602528;54;20030;31
2023/07/02 21:21:14;;;;;;;;;;;18.40;99.90;;;;;;2603014;54;20038;31
2023/07/02 21:23:50;;;;;;;6.18;4.90;;;18.30;99.90;;;;;;2603277;54;20717;31
2023/07/02 21:26:25;;;;;;;8.10;3.85;;;18.30;99.90;;;;;;2603333;54;20049;31
2023/07/02 21:29:02;;;;;;;6.75;4.85;;;18.20;99.90;;;;;;2603111;54;20046;31
2023/07/02 21:31:45;;;;;;;7.32;4.80;;;18.20;99.90;;;;;;2603401;54;20109;31
2023/07/02 21:34:19;;;;;;;10.70;4.57;;;18.20;99.90;;;;;;2603229;54;20801;31
2023/07/02 21:36:54;;;;;;;8.52;5.07;;;18.20;99.90;;;;;;2622038;46;20057;31
2023/07/02 21:39:29;;;;;;;7.00;5.05;;;18.10;99.90;;;;;;2603349;54;19941;31
2023/07/02 21:42:04;;;;;;;9.35;4.90;;;18.00;99.90;;;;;;2603090;54;20049;31
2023/07/02 21:44:39;;;;;;;9.25;5.40;;;18.00;99.90;;;;;;2603218;54;20046;31
2023/07/02 21:47:16;;;;;;;6.35;4.75;;;17.90;99.90;;;;;;2622155;46;20573;31
2023/07/02 21:49:51;;;;;;;9.65;5.50;;;17.90;99.90;;;;;;2603554;54;20064;31
2023/07/02 21:52:28;;;;;;;9.88;5.38;;;17.80;99.90;;;;;;2603294;54;20899;31
2023/07/02 21:55:04;;;;;;;8.60;5.68;;;17.80;99.90;;;;;;2603301;54;20030;31
2023/07/02 21:57:40;;;;;;;7.43;5.07;;;17.80;99.90;;;;;;2603121;54;20732;31
2023/07/02 22:00:17;;;;;;;7.82;4.63;;;17.70;99.90;;;;;;2621604;46;20037;31
2023/07/02 22:02:54;;;;;;;6.60;5.20;;;17.60;99.90;;;;;;2602991;54;20038;31
2023/07/02 22:05:28;;;;;;;7.95;5.60;;;17.60;99.90;;;;;;2603049;54;20912;31
2023/07/02 22:08:03;;;;;;;9.40;5.70;;;17.60;99.90;;;;;;2603258;54;20027;31
2023/07/02 22:10:38;;;;;;;10.38;5.15;;;17.60;99.90;;;;;;2603046;54;20821;31
2023/07/02 22:13:14;;;;;;;6.07;4.77;;;17.50;99.90;;;;;;2603241;54;20919;31
2023/07/02 22:15:48;;;;;;;6.47;4.57;;;17.50;99.90;;;;;;2603182;54;20034;31
2023/07/02 22:18:27;;;;;;;6.80;4.80;;;17.50;99.90;;;;;;2603214;54;20903;31
2023/07/02 22:21:02;;;;;;;6.40;4.28;;;17.40;99.90;;;;;;2603071;54;20290;31
2023/07/02 22:23:37;;;;;;;12.50;5.75;;;17.40;99.90;;;;;;2603175;54;20023;31
2023/07/02 22:26:11;;;;;;;10.57;5.20;;;17.40;99.90;;;;;;2603156;54;20031;31
2023/07/02 22:28:46;;;;;;;7.53;5.40;;;17.40;99.90;;;;;;2602856;54;20033;31
2023/07/02 22:31:21;;;;;;;7.05;4.95;;;17.40;99.90;;;;;;2603166;54;20921;31
2023/07/02 22:33:59;;;;;;;10.93;5.83;;;17.30;99.90;;;;;;2621726;46;20867;31
2023/07/02 22:36:33;;;;;;;9.18;5.30;;;17.30;99.90;;;;;;2621881;46;20817;31
2023/07/02 22:39:09;;;;;;;7.85;5.70;;;17.20;99.90;;;;;;2602948;54;20046;31
2023/07/02 22:41:43;;;;;;;8.87;6.00;;;17.20;99.90;;;;;;2603013;54;20081;31
2023/07/02 22:44:19;;;;;;;8.18;5.25;;;17.10;99.90;;;;;;2602967;54;20815;31
2023/07/02 22:46:55;;;;;;;9.40;5.80;;;17.10;99.90;;;;;;2602776;54;20908;31
2023/07/02 22:49:33;;;;;;;;;;;17.00;99.90;;;;;;2603298;54;20026;31
2023/07/02 22:52:11;;;;;;;12.00;6.30;;;17.00;99.90;;;;;;2602936;54;20780;31
2023/07/02 22:54:45;;;;;;;7.63;5.32;;;16.90;99.90;;;;;;2603152;54;20050;31
2023/07/02 22:57:20;;;;;;;13.30;7.20;;;16.90;99.90;;;;;;2621728;47;20030;31
2023/07/02 22:59:55;;;;;;;10.57;6.22;;;16.80;99.90;;;;;;2602830;54;20065;31
2023/07/02 23:02:28;;;;;;;11.43;5.47;;;16.80;99.90;;;;;;2602735;54;22385;31
2023/07/02 23:05:06;;;;;;;10.57;6.43;;;16.70;99.90;;;;;;2602903;54;20676;31
2023/07/02 23:07:43;;;;;;;6.88;5.47;;;16.70;99.90;;;;;;2602884;54;20174;31
2023/07/02 23:10:18;;;;;;;10.95;6.90;;;16.60;99.90;;;;;;2603119;54;20031;31
2023/07/02 23:12:53;;;;;;;11.50;6.45;;;16.60;99.90;;;;;;2603124;54;20027;31
2023/07/02 23:15:26;;;;;;;13.90;6.63;;;16.50;99.90;;;;;;2701586;39;21390;31
2023/07/02 23:18:01;;;;;;;10.18;7.25;;;16.50;99.90;;;;;;2621274;47;20880;31
2023/07/02 23:20:39;;;;;;;10.05;6.53;;;16.40;99.90;;;;;;2602723;54;20039;31
2023/07/02 23:23:17;;;;;;;9.25;6.70;;;16.40;99.90;;;;;;2602654;54;20026;31
2023/07/02 23:25:51;;;;;;;15.35;5.47;;;16.40;99.90;;;;;;2602737;54;20068;31
2023/07/02 23:28:26;;;;;;;11.85;6.15;;;16.40;99.90;;;;;;2602646;54;20030;31
2023/07/02 23:31:04;;;;;;;10.50;5.50;;;16.40;99.90;;;;;;2620960;47;20069;31
2023/07/02 23:33:40;;;;;;;9.80;6.80;;;16.40;99.90;;;;;;2603472;54;20786;31
2023/07/02 23:36:23;;;;;;;;;;;16.40;99.90;;;;;;2603211;54;20597;31
2023/07/02 23:38:57;;;;;;;7.35;5.78;;;16.40;99.90;;;;;;2612416;46;20843;31
2023/07/02 23:41:32;;;;;;;10.45;7.30;;;16.30;99.90;;;;;;2603547;54;20030;31
2023/07/02 23:44:08;;;;;;;12.57;7.50;;;16.30;99.90;;;;;;2603859;54;20030;31
2023/07/02 23:46:42;;;;;;;12.05;6.70;;;16.30;99.90;;;;;;2603526;54;19934;31
2023/07/02 23:49:17;;;;;;;8.98;5.88;;;16.30;99.90;;;;;;2603484;54;20113;31
2023/07/02 23:51:55;;;;;;;11.50;6.25;;;16.30;99.90;;;;;;2603455;54;20026;31
2023/07/02 23:54:30;;;;;;;9.95;6.95;;;16.30;99.90;;;;;;2603667;54;20639;31
2023/07/02 23:57:06;;;;;;;11.40;6.10;;;16.30;99.90;;;;;;2603586;54;20028;31
2023/07/02 23:59:41;;;;;;;9.65;5.75;;;16.20;99.90;;;;;;2622058;46;20508;31
